Terminal Aerodrome Forecast
Issued by NWS

Home | Current Version | Previous Version | Text Only | Print | Product List | Glossary On
Versions: 1 2 3 4 5 6 7 8 9 10 11 12
000
FTUS41 KPBZ 032320
TAFMGW
TAF
KMGW 032320Z 0400/0424 21007KT P6SM VCSH BKN050 BKN080
      TEMPO 0401/0404 5SM TSRA SCT030 BKN050CB
     FM041100 29005KT P6SM SKC
     FM041500 29009G15KT P6SM SKC=

USA.gov is the U.S. government's official web portal to all federal, state and local government web resources and services.